New Braunfels, TX

5:54 AM CDT on September 04, 2015 (GMT -0500)
Las Brisas | | Change Station
CLOSE
Current Station
Personal Weather Station
Location: Seguin, TX
Elevation: 568 ft
Nearby Weather Stations

Elev 568 ft 29.62 °N, 98.05 °W | Updated 2 minutes ago

Overcast
Overcast
74.9 °F
Feels Like 74 °F
N
0.0
Wind Variable Wind from North
Gusts 0.0 mph

Today
High -- | Low -- °F
--% Chance of Precip.
Yesterday
High -- | Low -- °F
Precip. -- in
7:10 AM 7:51 PM
Waning Gibbous, 60% visible
Pressure 29.88 in
Visibility 10.0 miles
Clouds Overcast 700 ft
Heat Index 74 °F
Dew Point 72 °F
Humidity 91%
Rainfall 0.00 in
Snow Depth Not available.
UV 0 out of 12
Pollen 8.80 out of 12
Air Quality Not available.
Flu Activity Not available.
METAR KBAZ 041051Z AUTO 13004KT 10SM OVC007 25/23 A2991 RMK AO2 SLP118 T02500228
Pressure 29.88 in
Visibility 10.0 miles
Clouds Overcast 700 ft
Heat Index 74 °F
Dew Point 72 °F
Humidity 91%
Rainfall 0.00 in
Snow Depth Not available.
UV 0 out of 12
Pollen 8.80 out of 12
Air Quality Not available.
Flu Activity Not available.
METAR KBAZ 041051Z AUTO 13004KT 10SM OVC007 25/23 A2991 RMK AO2 SLP118 T02500228

10-Day Weather Forecast

×

Almanac

Astronomy

Sep. 04, 2015 Rise Set
Actual Time
Civil Twilight
Nautical Twilight
Astronomical Twilight
Moon
Length of Visible Light
Length of Day
Tomorrow will be .
, % of the Moon is Illuminated

Today's Extremes

State Highs State Lows

Community

WunderPhotos

Upload Photos

1,852,146 photos uploaded!

WunderBlogs® & News

Nearby

Air Quality

  Air Quality AQ Index Pollutant
Not available.

Snow Depth

Station Depth Elevation

Earthquake Activity

City Distance Mag. Time & Date
Minimum magnitude displayed is 2.5.

Coastal Water Temperatures

Place Temperature

Stations

Nearby Weather Stations

Station Location Temp. Windchill Dew Point Humidity Wind Precip. Elev Updated Type